createdAt,value
2019-02-06T00:00:31.481Z,0
2019-02-06T00:01:41.516Z,0
2019-02-06T00:02:51.471Z,0
2019-02-06T00:04:01.812Z,0
2019-02-06T00:05:24.128Z,0
2019-02-06T00:06:34.525Z,0
2019-02-06T00:07:44.840Z,0
2019-02-06T00:08:55.131Z,0
2019-02-06T00:10:05.294Z,0
2019-02-06T00:11:15.512Z,0
2019-02-06T00:12:25.596Z,0
2019-02-06T00:13:35.837Z,0
2019-02-06T00:14:45.988Z,0
2019-02-06T00:15:56.198Z,0
2019-02-06T00:17:06.339Z,0
2019-02-06T00:18:16.461Z,0
2019-02-06T00:19:26.602Z,0
2019-02-06T00:20:36.613Z,0
2019-02-06T00:21:46.550Z,0
2019-02-06T00:22:56.514Z,0
2019-02-06T00:24:06.457Z,0
2019-02-06T00:25:16.506Z,0
2019-02-06T00:26:26.442Z,0
2019-02-06T00:27:36.384Z,0
2019-02-06T00:28:46.313Z,0
2019-02-06T00:29:56.247Z,0
2019-02-06T00:31:06.270Z,0
2019-02-06T00:32:16.199Z,0
2019-02-06T00:33:26.151Z,0
2019-02-06T00:34:36.111Z,0
2019-02-06T00:35:46.041Z,0
2019-02-06T00:36:56.074Z,0
2019-02-06T00:38:07.936Z,0
2019-02-06T00:39:17.872Z,0
2019-02-06T00:40:27.809Z,0
2019-02-06T00:41:37.746Z,0
2019-02-06T00:42:47.726Z,0
2019-02-06T00:43:57.418Z,0
2019-02-06T00:45:07.438Z,0
2019-02-06T00:46:17.372Z,0
2019-02-06T00:47:27.321Z,0
2019-02-06T00:48:37.353Z,0
2019-02-06T00:49:47.299Z,0
2019-02-06T00:50:57.232Z,0
2019-02-06T00:52:07.192Z,0
2019-02-06T00:53:17.128Z,0
2019-02-06T00:54:27.110Z,0
2019-02-06T00:55:37.054Z,0
2019-02-06T00:56:46.987Z,0
2019-02-06T00:57:56.920Z,0
2019-02-06T00:59:06.871Z,0
2019-02-06T01:00:16.918Z,0
2019-02-06T01:01:26.868Z,0
2019-02-06T01:02:36.819Z,0
2019-02-06T01:03:46.754Z,0
2019-02-06T01:04:56.700Z,0
2019-02-06T01:06:06.727Z,0
2019-02-06T01:07:16.662Z,0
2019-02-06T01:08:26.614Z,0
2019-02-06T01:09:36.551Z,0
2019-02-06T01:10:46.488Z,0
2019-02-06T01:11:56.525Z,0
2019-02-06T01:13:06.476Z,0
2019-02-06T01:14:16.443Z,0
2019-02-06T01:15:26.472Z,0
2019-02-06T01:16:36.901Z,0
2019-02-06T01:17:47.577Z,0
2019-02-06T01:18:58.529Z,0
2019-02-06T01:20:09.457Z,0
2019-02-06T01:21:20.319Z,0
2019-02-06T01:22:30.867Z,0
2019-02-06T01:23:41.609Z,0
2019-02-06T01:24:52.052Z,0
2019-02-06T01:26:02.521Z,0
2019-02-06T01:27:12.690Z,0
2019-02-06T01:28:22.797Z,0
2019-02-06T01:29:32.898Z,0
2019-02-06T01:30:42.847Z,0
2019-02-06T01:31:52.798Z,0
2019-02-06T01:33:02.751Z,0
2019-02-06T01:34:12.698Z,0
2019-02-06T01:35:22.695Z,0
2019-02-06T01:36:32.635Z,0
2019-02-06T01:37:42.567Z,0
2019-02-06T01:38:52.514Z,0
2019-02-06T01:40:02.573Z,0
2019-02-06T01:41:12.580Z,0
2019-02-06T01:42:22.506Z,0
2019-02-06T01:43:32.443Z,0
2019-02-06T01:44:42.380Z,0
2019-02-06T01:45:52.330Z,0
2019-02-06T01:47:02.310Z,0
2019-02-06T01:48:12.239Z,0
2019-02-06T01:49:22.180Z,0
2019-02-06T01:50:32.121Z,0
2019-02-06T01:51:42.054Z,0
2019-02-06T01:52:52.049Z,0
2019-02-06T01:54:02.027Z,0
2019-02-06T01:55:11.967Z,0
2019-02-06T01:56:21.908Z,0
2019-02-06T01:57:31.851Z,0
2019-02-06T01:58:41.835Z,0
2019-02-06T01:59:51.767Z,0
2019-02-06T02:01:01.706Z,0
2019-02-06T02:02:11.644Z,0
2019-02-06T02:03:21.580Z,0
2019-02-06T02:04:31.633Z,0
2019-02-06T02:05:42.854Z,0
2019-02-06T02:06:52.783Z,0
2019-02-06T02:08:02.720Z,0
2019-02-06T02:09:12.644Z,0
2019-02-06T02:10:22.697Z,0
2019-02-06T02:11:32.716Z,0
2019-02-06T02:12:42.643Z,0
2019-02-06T02:13:52.575Z,0
2019-02-06T02:15:02.701Z,0
2019-02-06T02:16:12.742Z,0
2019-02-06T02:17:22.678Z,0
2019-02-06T02:18:32.596Z,0
2019-02-06T02:19:42.520Z,0
2019-02-06T02:20:52.474Z,0
2019-02-06T02:22:02.463Z,0
2019-02-06T02:23:12.410Z,0
2019-02-06T02:24:22.345Z,0
2019-02-06T02:25:32.280Z,0
2019-02-06T02:26:42.215Z,0
2019-02-06T02:27:52.248Z,0
2019-02-06T02:29:02.184Z,0
2019-02-06T02:30:12.145Z,0
2019-02-06T02:31:22.144Z,0
2019-02-06T02:32:32.139Z,0
2019-02-06T02:33:42.187Z,0
2019-02-06T02:34:52.131Z,0
2019-02-06T02:36:14.210Z,0
2019-02-06T02:37:25.143Z,0
2019-02-06T02:38:35.374Z,0
2019-02-06T02:39:45.308Z,0
2019-02-06T02:40:55.254Z,0
2019-02-06T02:42:05.265Z,0
2019-02-06T02:43:15.216Z,0
2019-02-06T02:44:25.164Z,0
2019-02-06T02:45:35.106Z,0
2019-02-06T02:46:45.047Z,0
2019-02-06T02:47:55.000Z,0
2019-02-06T02:49:04.934Z,0
2019-02-06T02:50:14.965Z,0
2019-02-06T02:51:24.892Z,0
2019-02-06T02:52:34.846Z,0
2019-02-06T02:53:44.814Z,0
2019-02-06T02:54:54.746Z,0
2019-02-06T02:56:04.805Z,0
2019-02-06T02:57:14.755Z,0
2019-02-06T02:58:24.712Z,0
2019-02-06T02:59:34.817Z,0
2019-02-06T03:00:44.769Z,0
2019-02-06T03:01:54.869Z,0
2019-02-06T03:03:04.973Z,0
2019-02-06T03:04:14.936Z,0
2019-02-06T03:05:24.637Z,0
2019-02-06T03:06:38.051Z,0
2019-02-06T03:07:48.041Z,0
2019-02-06T03:08:57.989Z,0
2019-02-06T03:10:07.934Z,0
2019-02-06T03:11:17.883Z,0
2019-02-06T03:12:27.840Z,0
2019-02-06T03:13:37.833Z,0
2019-02-06T03:14:47.753Z,0
2019-02-06T03:15:57.702Z,0
2019-02-06T03:17:10.552Z,0
2019-02-06T03:18:20.527Z,0
2019-02-06T03:19:30.322Z,0
2019-02-06T03:20:40.270Z,0
2019-02-06T03:21:50.209Z,0
2019-02-06T03:23:00.160Z,0
2019-02-06T03:24:10.251Z,0
2019-02-06T03:25:20.304Z,0
2019-02-06T03:26:30.271Z,0
2019-02-06T03:27:40.226Z,0
2019-02-06T03:28:49.918Z,0
2019-02-06T03:29:59.859Z,0
2019-02-06T03:31:09.899Z,0
2019-02-06T03:32:19.855Z,0
2019-02-06T03:33:29.885Z,0
2019-02-06T03:34:39.820Z,0
2019-02-06T03:35:49.909Z,0
2019-02-06T03:37:00.094Z,0
2019-02-06T03:38:10.112Z,0
2019-02-06T03:39:20.801Z,0
2019-02-06T03:40:31.428Z,0
2019-02-06T03:41:42.090Z,0
2019-02-06T03:42:53.326Z,0
2019-02-06T03:44:04.010Z,0
2019-02-06T03:45:14.841Z,0
2019-02-06T03:46:25.394Z,0
2019-02-06T03:47:35.897Z,0
2019-02-06T03:48:46.308Z,0
2019-02-06T03:49:56.451Z,0
2019-02-06T03:51:06.644Z,0
2019-02-06T03:52:16.348Z,0
2019-02-06T03:53:26.284Z,0
2019-02-06T03:54:36.543Z,0
2019-02-06T03:55:46.489Z,0
2019-02-06T03:56:56.451Z,0
2019-02-06T03:58:06.392Z,0
2019-02-06T03:59:16.325Z,0
2019-02-06T04:00:26.383Z,0
2019-02-06T04:01:36.327Z,0
2019-02-06T04:02:46.262Z,0
2019-02-06T04:03:56.210Z,0
2019-02-06T04:05:06.262Z,0
2019-02-06T04:06:16.306Z,0
2019-02-06T04:07:26.263Z,0
2019-02-06T04:08:36.224Z,0
2019-02-06T04:09:46.175Z,0
2019-02-06T04:10:56.115Z,0
2019-02-06T04:12:06.145Z,0
2019-02-06T04:13:16.092Z,0
2019-02-06T04:14:26.044Z,0
2019-02-06T04:15:36.080Z,0
2019-02-06T04:16:46.022Z,0
2019-02-06T04:17:59.364Z,0
2019-02-06T04:19:09.354Z,0
2019-02-06T04:20:19.297Z,0
2019-02-06T04:21:29.233Z,0
2019-02-06T04:22:39.195Z,0
2019-02-06T04:23:49.158Z,0
2019-02-06T04:25:01.328Z,0
2019-02-06T04:26:11.283Z,0
2019-02-06T04:27:21.222Z,0
2019-02-06T04:28:31.151Z,0
2019-02-06T04:29:41.177Z,0
2019-02-06T04:30:51.196Z,0
2019-02-06T04:32:01.235Z,0
2019-02-06T04:33:11.170Z,0
2019-02-06T04:34:21.095Z,0
2019-02-06T04:35:31.140Z,0
2019-02-06T04:36:41.093Z,0
2019-02-06T04:37:51.080Z,0
2019-02-06T04:39:01.047Z,0
2019-02-06T04:40:10.991Z,0
2019-02-06T04:41:20.955Z,0
2019-02-06T04:42:30.889Z,0
2019-02-06T04:43:40.818Z,0
2019-02-06T04:44:50.759Z,0
2019-02-06T04:46:00.710Z,0
2019-02-06T04:47:10.715Z,0
2019-02-06T04:48:20.657Z,0
2019-02-06T04:49:30.598Z,0
2019-02-06T04:50:40.847Z,0
2019-02-06T04:51:51.397Z,0
2019-02-06T04:53:02.085Z,0
2019-02-06T04:54:12.923Z,0
2019-02-06T04:55:23.931Z,0
2019-02-06T04:56:34.401Z,0
2019-02-06T04:57:45.252Z,0
2019-02-06T04:58:55.827Z,0
2019-02-06T05:00:05.880Z,0
2019-02-06T05:01:16.093Z,0
2019-02-06T05:02:26.309Z,0
2019-02-06T05:03:36.292Z,0
2019-02-06T05:04:46.262Z,0
2019-02-06T05:05:56.193Z,0
2019-02-06T05:07:18.169Z,0
2019-02-06T05:08:28.704Z,0
2019-02-06T05:09:38.831Z,0
2019-02-06T05:10:48.785Z,0
2019-02-06T05:11:58.735Z,0
2019-02-06T05:13:08.677Z,0
2019-02-06T05:14:18.615Z,0
2019-02-06T05:15:28.621Z,0
2019-02-06T05:16:38.554Z,0
2019-02-06T05:17:48.591Z,0
2019-02-06T05:18:58.676Z,0
2019-02-06T05:20:08.635Z,0
2019-02-06T05:21:18.705Z,0
2019-02-06T05:22:28.656Z,0
2019-02-06T05:23:38.587Z,0
2019-02-06T05:24:48.533Z,0
2019-02-06T05:25:58.465Z,0
2019-02-06T05:27:08.452Z,0
2019-02-06T05:28:20.698Z,0
2019-02-06T05:29:30.773Z,0
2019-02-06T05:30:40.728Z,0
2019-02-06T05:31:50.661Z,0
2019-02-06T05:33:00.647Z,0
2019-02-06T05:34:10.574Z,0
2019-02-06T05:35:20.518Z,0
2019-02-06T05:36:30.581Z,0
2019-02-06T05:37:42.008Z,0
2019-02-06T05:38:51.825Z,0
2019-02-06T05:40:01.525Z,0
2019-02-06T05:41:11.461Z,0
2019-02-06T05:42:21.392Z,0
2019-02-06T05:43:31.342Z,0
2019-02-06T05:44:41.380Z,0
2019-02-06T05:45:51.315Z,0
2019-02-06T05:47:01.263Z,0
2019-02-06T05:48:11.205Z,0
2019-02-06T05:49:21.148Z,0
2019-02-06T05:50:30.957Z,0
2019-02-06T05:51:40.937Z,0
2019-02-06T05:52:50.909Z,0
2019-02-06T05:54:01.053Z,0
2019-02-06T05:55:14.296Z,0
2019-02-06T05:56:24.713Z,0
2019-02-06T05:57:35.346Z,0
2019-02-06T05:58:45.966Z,0
2019-02-06T05:59:56.676Z,0
2019-02-06T06:01:07.663Z,0
2019-02-06T06:02:18.529Z,0
2019-02-06T06:03:29.303Z,0
2019-02-06T06:04:39.761Z,0
2019-02-06T06:05:50.101Z,0
2019-02-06T06:07:00.053Z,0
2019-02-06T06:08:10.455Z,0
2019-02-06T06:09:20.390Z,0
2019-02-06T06:10:30.409Z,0
2019-02-06T06:11:40.359Z,0
2019-02-06T06:12:50.334Z,0
2019-02-06T06:14:00.397Z,0
2019-02-06T06:15:10.343Z,0
2019-02-06T06:16:20.277Z,0
2019-02-06T06:17:30.242Z,0
2019-02-06T06:18:40.183Z,0
2019-02-06T06:19:50.193Z,0
2019-02-06T06:21:00.155Z,0
2019-02-06T06:22:10.097Z,0
2019-02-06T06:23:20.046Z,0
2019-02-06T06:24:30.011Z,0
2019-02-06T06:25:39.973Z,0
2019-02-06T06:26:49.919Z,0
2019-02-06T06:27:59.857Z,0
2019-02-06T06:29:09.815Z,0
2019-02-06T06:30:19.771Z,0
2019-02-06T06:31:29.818Z,0
2019-02-06T06:32:41.698Z,0
2019-02-06T06:33:51.638Z,0
2019-02-06T06:35:01.568Z,0
2019-02-06T06:36:11.272Z,0
2019-02-06T06:37:21.279Z,0
2019-02-06T06:38:31.214Z,0
2019-02-06T06:39:41.166Z,0
2019-02-06T06:40:51.239Z,0
2019-02-06T06:42:01.188Z,0
2019-02-06T06:43:11.406Z,0
2019-02-06T06:44:21.341Z,0
2019-02-06T06:45:31.275Z,0
2019-02-06T06:46:41.204Z,0
2019-02-06T06:47:51.164Z,0
2019-02-06T06:49:01.159Z,0
2019-02-06T06:50:11.107Z,0
2019-02-06T06:51:21.044Z,0
2019-02-06T06:52:30.999Z,0
2019-02-06T06:53:40.951Z,0
2019-02-06T06:54:51.120Z,0
2019-02-06T06:56:00.809Z,0
2019-02-06T06:57:12.408Z,0
2019-02-06T06:58:22.482Z,0
2019-02-06T06:59:32.707Z,0
2019-02-06T07:00:42.712Z,0
2019-02-06T07:01:52.421Z,0
2019-02-06T07:03:02.581Z,0
2019-02-06T07:04:12.560Z,5
2019-02-06T07:05:22.647Z,5
2019-02-06T07:06:32.386Z,5
2019-02-06T07:07:42.352Z,5
2019-02-06T07:08:52.306Z,5
2019-02-06T07:10:02.271Z,5
2019-02-06T07:11:12.208Z,5
2019-02-06T07:12:22.247Z,5
2019-02-06T07:13:32.198Z,5
2019-02-06T07:14:42.166Z,5
2019-02-06T07:15:52.115Z,5
2019-02-06T07:17:02.080Z,5
2019-02-06T07:18:12.360Z,5
2019-02-06T07:19:22.809Z,10
2019-02-06T07:20:33.283Z,10
2019-02-06T07:21:44.086Z,10
2019-02-06T07:22:55.316Z,10
2019-02-06T07:24:05.909Z,10
2019-02-06T07:25:16.637Z,10
2019-02-06T07:26:26.985Z,10
2019-02-06T07:27:37.417Z,10
2019-02-06T07:28:47.516Z,15
2019-02-06T07:29:57.737Z,15
2019-02-06T07:31:07.682Z,15
2019-02-06T07:32:17.611Z,15
2019-02-06T07:33:27.299Z,15
2019-02-06T07:34:37.270Z,15
2019-02-06T07:35:47.309Z,20
2019-02-06T07:36:57.254Z,20
2019-02-06T07:38:07.269Z,20
2019-02-06T07:39:17.300Z,25
2019-02-06T07:40:27.254Z,25
2019-02-06T07:41:37.296Z,25
2019-02-06T07:42:47.267Z,25
2019-02-06T07:43:57.223Z,25
2019-02-06T07:45:07.158Z,30
2019-02-06T07:46:16.834Z,30
2019-02-06T07:47:26.878Z,35
2019-02-06T07:48:36.808Z,35
2019-02-06T07:49:46.739Z,35
2019-02-06T07:50:56.678Z,35
2019-02-06T07:52:06.620Z,40
2019-02-06T07:53:16.553Z,40
2019-02-06T07:54:26.249Z,45
2019-02-06T07:55:36.205Z,45
2019-02-06T07:56:45.891Z,50
2019-02-06T07:57:55.917Z,50
2019-02-06T07:59:05.919Z,55
2019-02-06T08:00:15.866Z,55
2019-02-06T08:01:25.827Z,60
2019-02-06T08:02:35.772Z,60
2019-02-06T08:03:45.714Z,65
2019-02-06T08:04:55.748Z,60
2019-02-06T08:06:05.699Z,65
2019-02-06T08:07:15.627Z,65
2019-02-06T08:08:35.555Z,65
2019-02-06T08:09:46.175Z,70
2019-02-06T08:10:56.177Z,70
2019-02-06T08:12:06.115Z,70
2019-02-06T08:13:16.046Z,70
2019-02-06T08:14:25.970Z,70
2019-02-06T08:15:35.901Z,75
2019-02-06T08:16:45.959Z,75
2019-02-06T08:17:55.907Z,75
2019-02-06T08:19:05.902Z,75
2019-02-06T08:20:15.843Z,75
2019-02-06T08:21:25.782Z,80
2019-02-06T08:22:35.980Z,80
2019-02-06T08:23:45.924Z,80
2019-02-06T08:24:55.876Z,80
2019-02-06T08:26:05.835Z,80
2019-02-06T08:27:15.774Z,80
2019-02-06T08:28:26.067Z,85
2019-02-06T08:29:36.513Z,85
2019-02-06T08:30:47.002Z,90
2019-02-06T08:31:57.802Z,90
2019-02-06T08:33:08.957Z,95
2019-02-06T08:34:19.797Z,95
2019-02-06T08:35:30.424Z,100
2019-02-06T08:36:40.772Z,105
2019-02-06T08:37:50.952Z,105
2019-02-06T08:39:02.959Z,105
2019-02-06T08:40:13.005Z,110
2019-02-06T08:41:22.949Z,110
2019-02-06T08:42:32.892Z,115
2019-02-06T08:43:42.828Z,115
2019-02-06T08:44:52.523Z,115
2019-02-06T08:46:02.505Z,115
2019-02-06T08:47:12.458Z,115
2019-02-06T08:48:22.430Z,120
2019-02-06T08:49:32.385Z,120
2019-02-06T08:50:42.329Z,120
2019-02-06T08:51:52.367Z,125
2019-02-06T08:53:02.328Z,125
2019-02-06T08:54:12.279Z,130
2019-02-06T08:55:22.213Z,130
2019-02-06T08:56:32.140Z,135
2019-02-06T08:57:42.121Z,135
2019-02-06T08:58:52.056Z,135
2019-02-06T09:00:01.997Z,140
2019-02-06T09:01:11.934Z,140
2019-02-06T09:02:21.877Z,140
2019-02-06T09:03:31.857Z,140
2019-02-06T09:04:41.586Z,145
2019-02-06T09:05:51.525Z,145
2019-02-06T09:07:01.454Z,145
2019-02-06T09:08:11.406Z,145
2019-02-06T09:09:21.395Z,145
2019-02-06T09:10:31.340Z,145
2019-02-06T09:11:41.279Z,145
2019-02-06T09:12:51.221Z,145
2019-02-06T09:14:01.161Z,145
2019-02-06T09:15:11.207Z,145
2019-02-06T09:16:21.147Z,145
2019-02-06T09:17:31.089Z,145
2019-02-06T09:18:41.026Z,155
2019-02-06T09:19:50.971Z,150
2019-02-06T09:21:02.624Z,150
2019-02-06T09:26:02.790Z,155
2019-02-06T09:27:13.712Z,155
2019-02-06T09:28:24.362Z,155
2019-02-06T09:29:35.160Z,160
2019-02-06T09:30:45.681Z,160
2019-02-06T09:31:56.069Z,160
2019-02-06T09:33:06.284Z,165
2019-02-06T09:34:19.442Z,165
2019-02-06T09:35:29.392Z,170
2019-02-06T09:36:39.326Z,170
2019-02-06T09:37:49.344Z,170
2019-02-06T09:39:10.697Z,175
2019-02-06T09:40:21.113Z,175
2019-02-06T09:41:31.081Z,180
2019-02-06T09:42:41.117Z,180
2019-02-06T09:43:51.117Z,190
2019-02-06T09:45:00.822Z,190
2019-02-06T09:46:10.773Z,190
2019-02-06T09:47:20.745Z,195
2019-02-06T09:48:30.756Z,200
2019-02-06T09:49:41.642Z,205
2019-02-06T09:50:51.781Z,205
2019-02-06T09:52:01.720Z,205
2019-02-06T09:53:11.660Z,210
2019-02-06T09:54:21.660Z,210
2019-02-06T09:55:31.616Z,210
2019-02-06T09:56:41.568Z,210
2019-02-06T09:57:51.497Z,210
2019-02-06T09:59:01.463Z,210
2019-02-06T10:00:11.517Z,210
2019-02-06T10:01:23.969Z,210
2019-02-06T10:02:33.911Z,210
2019-02-06T10:03:46.677Z,215
2019-02-06T10:04:56.865Z,220
2019-02-06T10:06:06.856Z,220
2019-02-06T10:07:16.803Z,225
2019-02-06T10:08:26.758Z,225
2019-02-06T10:09:36.697Z,230
2019-02-06T10:10:46.640Z,225
2019-02-06T10:11:56.640Z,225
2019-02-06T10:13:06.701Z,225
2019-02-06T10:14:16.661Z,225
2019-02-06T10:15:26.606Z,220
2019-02-06T10:16:36.548Z,220
2019-02-06T10:17:46.488Z,220
2019-02-06T10:18:56.437Z,220
2019-02-06T10:20:06.383Z,220
2019-02-06T10:21:16.402Z,220
2019-02-06T10:22:27.106Z,215
2019-02-06T10:23:43.694Z,215
2019-02-06T10:24:54.003Z,215
2019-02-06T10:26:04.561Z,215
2019-02-06T10:27:14.960Z,210
2019-02-06T10:28:26.832Z,205
2019-02-06T10:29:36.876Z,200
2019-02-06T10:30:46.844Z,200
2019-02-06T10:31:56.540Z,200
2019-02-06T10:33:06.256Z,200
2019-02-06T10:34:16.187Z,205
2019-02-06T10:35:26.212Z,200
2019-02-06T10:36:36.173Z,200
2019-02-06T10:37:46.263Z,205
2019-02-06T10:38:56.213Z,205
2019-02-06T10:40:08.373Z,200
2019-02-06T10:41:18.432Z,205
2019-02-06T10:42:28.382Z,195
2019-02-06T10:43:43.129Z,195
2019-02-06T10:44:53.063Z,190
2019-02-06T10:46:03.002Z,190
2019-02-06T10:47:13.087Z,195
2019-02-06T10:48:23.023Z,195
2019-02-06T10:49:32.977Z,195
2019-02-06T10:50:42.925Z,200
2019-02-06T10:51:52.856Z,200
2019-02-06T10:53:02.928Z,200
2019-02-06T10:54:14.657Z,200
2019-02-06T10:55:24.882Z,205
2019-02-06T10:56:34.835Z,210
2019-02-06T10:57:44.781Z,220
2019-02-06T10:58:54.825Z,230
2019-02-06T11:00:04.763Z,240
2019-02-06T11:01:14.727Z,240
2019-02-06T11:02:24.665Z,240
2019-02-06T11:03:34.615Z,240
2019-02-06T11:04:44.673Z,240
2019-02-06T11:05:54.724Z,240
2019-02-06T11:07:04.667Z,240
2019-02-06T11:08:14.625Z,235
2019-02-06T11:09:24.579Z,235
2019-02-06T11:10:34.717Z,240
2019-02-06T11:11:44.656Z,240
2019-02-06T11:12:54.617Z,240
2019-02-06T11:14:04.562Z,240
2019-02-06T11:15:14.517Z,240
2019-02-06T11:16:24.616Z,240
2019-02-06T11:17:34.560Z,235
2019-02-06T11:18:47.012Z,235
2019-02-06T11:19:56.959Z,235
2019-02-06T11:21:07.315Z,225
2019-02-06T11:22:17.878Z,220
2019-02-06T11:23:28.393Z,215
2019-02-06T11:24:39.109Z,210
2019-02-06T11:25:50.345Z,210
2019-02-06T11:27:01.071Z,210
2019-02-06T11:28:11.687Z,215
2019-02-06T11:29:22.080Z,220
2019-02-06T11:30:32.299Z,220
2019-02-06T11:31:42.422Z,220
2019-02-06T11:32:52.434Z,215
2019-02-06T11:34:02.480Z,210
2019-02-06T11:35:12.432Z,210
2019-02-06T11:36:33.324Z,210
2019-02-06T11:37:43.265Z,210
2019-02-06T11:38:53.342Z,210
2019-02-06T11:40:07.800Z,205
2019-02-06T11:41:17.753Z,205
2019-02-06T11:42:27.704Z,205
2019-02-06T11:43:39.457Z,205
2019-02-06T11:44:49.568Z,205
2019-02-06T11:45:59.528Z,200
2019-02-06T11:47:09.501Z,195
2019-02-06T11:48:19.486Z,195
2019-02-06T11:49:29.545Z,190
2019-02-06T11:50:39.602Z,195
2019-02-06T11:51:49.572Z,200
2019-02-06T11:52:59.623Z,210
2019-02-06T11:54:09.726Z,220
2019-02-06T11:55:19.755Z,225
2019-02-06T11:56:29.834Z,225
2019-02-06T11:57:39.773Z,220
2019-02-06T11:58:49.731Z,210
2019-02-06T12:00:02.766Z,215
2019-02-06T12:01:12.731Z,220
2019-02-06T12:02:23.736Z,220
2019-02-06T12:03:33.684Z,220
2019-02-06T12:04:43.629Z,225
2019-02-06T12:05:53.560Z,230
2019-02-06T12:07:03.504Z,235
2019-02-06T12:08:15.183Z,230
2019-02-06T12:09:25.958Z,230
2019-02-06T12:10:36.563Z,230
2019-02-06T12:11:47.041Z,230
2019-02-06T12:12:57.916Z,230
2019-02-06T12:14:08.771Z,230
2019-02-06T12:15:19.629Z,225
2019-02-06T12:16:30.987Z,225
2019-02-06T12:17:41.703Z,225
2019-02-06T12:18:52.105Z,225
2019-02-06T12:20:02.389Z,230
2019-02-06T12:21:12.559Z,225
2019-02-06T12:22:22.586Z,225
2019-02-06T12:23:41.902Z,225
2019-02-06T12:24:51.842Z,220
2019-02-06T12:26:01.842Z,220
2019-02-06T12:27:11.789Z,220
2019-02-06T12:28:21.549Z,225
2019-02-06T12:29:31.486Z,230
2019-02-06T12:30:41.444Z,235
2019-02-06T12:31:51.595Z,240
2019-02-06T12:33:02.216Z,245
2019-02-06T12:34:12.173Z,250
2019-02-06T12:35:22.113Z,255
2019-02-06T12:36:32.048Z,260
2019-02-06T12:37:42.184Z,265
2019-02-06T12:39:03.040Z,265
2019-02-06T12:40:24.135Z,270
2019-02-06T12:41:34.087Z,265
2019-02-06T12:42:44.055Z,265
2019-02-06T12:43:54.120Z,270
2019-02-06T12:45:06.331Z,275
2019-02-06T12:46:16.289Z,265
2019-02-06T12:47:29.253Z,240
2019-02-06T12:48:39.296Z,215
2019-02-06T12:49:49.234Z,195
2019-02-06T12:50:59.285Z,175
2019-02-06T12:52:09.238Z,170
2019-02-06T12:53:19.197Z,170
2019-02-06T12:54:29.243Z,170
2019-02-06T12:55:39.205Z,170
2019-02-06T12:56:49.153Z,175
2019-02-06T12:57:58.843Z,170
2019-02-06T12:59:08.815Z,170
2019-02-06T13:00:18.891Z,155
2019-02-06T13:01:28.824Z,150
2019-02-06T13:02:38.753Z,140
2019-02-06T13:03:48.851Z,145
2019-02-06T13:04:58.796Z,145
2019-02-06T13:06:09.084Z,145
2019-02-06T13:07:19.847Z,150
2019-02-06T13:08:30.348Z,150
2019-02-06T13:09:41.091Z,150
2019-02-06T13:10:51.801Z,150
2019-02-06T13:12:02.580Z,140
2019-02-06T13:13:13.544Z,135
2019-02-06T13:14:24.087Z,130
2019-02-06T13:15:34.616Z,130
2019-02-06T13:16:44.763Z,130
2019-02-06T13:17:54.947Z,130
2019-02-06T13:19:04.970Z,130
2019-02-06T13:20:14.910Z,130
2019-02-06T13:21:24.863Z,140
2019-02-06T13:22:34.800Z,145
2019-02-06T13:23:44.847Z,155
2019-02-06T13:24:54.782Z,160
2019-02-06T13:26:04.726Z,155
2019-02-06T13:27:14.665Z,155
2019-02-06T13:28:24.637Z,155
2019-02-06T13:29:34.717Z,155
2019-02-06T13:30:44.703Z,150
2019-02-06T13:31:54.648Z,145
2019-02-06T13:33:04.588Z,135
2019-02-06T13:34:14.545Z,130
2019-02-06T13:35:24.536Z,125
2019-02-06T13:36:34.475Z,120
2019-02-06T13:37:44.408Z,120
2019-02-06T13:38:54.363Z,115
2019-02-06T13:40:04.070Z,115
2019-02-06T13:41:14.081Z,110
2019-02-06T13:42:24.033Z,110
2019-02-06T13:43:33.770Z,110
2019-02-06T13:44:46.441Z,110
2019-02-06T13:45:56.381Z,110
2019-02-06T13:47:06.369Z,115
2019-02-06T13:48:16.311Z,115
2019-02-06T13:49:26.017Z,120
2019-02-06T13:50:35.960Z,125
2019-02-06T13:51:45.903Z,130
2019-02-06T13:52:55.961Z,130
2019-02-06T13:54:05.903Z,130
2019-02-06T13:55:17.046Z,135
2019-02-06T13:56:26.996Z,130
2019-02-06T13:57:43.448Z,125
2019-02-06T13:58:53.474Z,115
2019-02-06T14:00:03.420Z,110
2019-02-06T14:01:25.078Z,100
2019-02-06T14:02:36.393Z,90
2019-02-06T14:03:47.052Z,85
2019-02-06T14:04:57.817Z,75
2019-02-06T14:06:11.061Z,70
2019-02-06T14:07:21.475Z,65
2019-02-06T14:08:31.410Z,60
2019-02-06T14:09:41.398Z,60
2019-02-06T14:11:05.081Z,55
2019-02-06T14:12:18.246Z,55
2019-02-06T14:13:28.209Z,50
2019-02-06T14:14:38.259Z,50
2019-02-06T14:15:48.206Z,45
2019-02-06T14:16:57.897Z,45
2019-02-06T14:18:07.845Z,40
2019-02-06T14:19:17.795Z,40
2019-02-06T14:20:27.832Z,40
2019-02-06T14:21:37.811Z,40
2019-02-06T14:22:47.846Z,40
2019-02-06T14:23:58.254Z,40
2019-02-06T14:25:08.212Z,40
2019-02-06T14:26:21.358Z,40
2019-02-06T14:27:31.294Z,40
2019-02-06T14:28:51.478Z,40
2019-02-06T14:30:01.156Z,40
2019-02-06T14:31:12.814Z,35
2019-02-06T14:32:26.028Z,35
2019-02-06T14:33:39.025Z,35
2019-02-06T14:34:49.684Z,35
2019-02-06T14:36:00.168Z,35
2019-02-06T14:37:10.131Z,35
2019-02-06T14:38:20.276Z,35
2019-02-06T14:39:30.214Z,35
2019-02-06T14:40:40.152Z,35
2019-02-06T14:41:50.084Z,35
2019-02-06T14:43:00.135Z,35
2019-02-06T14:44:10.083Z,35
2019-02-06T14:45:20.033Z,35
2019-02-06T14:46:29.990Z,35
2019-02-06T14:47:39.934Z,35
2019-02-06T14:48:49.867Z,35
2019-02-06T14:49:59.802Z,35
2019-02-06T14:51:09.745Z,35
2019-02-06T14:52:19.700Z,35
2019-02-06T14:53:29.634Z,35
2019-02-06T14:54:39.677Z,35
2019-02-06T14:55:49.612Z,35
2019-02-06T14:56:59.674Z,35
2019-02-06T14:58:09.611Z,35
2019-02-06T14:59:19.549Z,35
2019-02-06T15:00:29.588Z,30
2019-02-06T15:01:41.480Z,30
2019-02-06T15:02:51.422Z,25
2019-02-06T15:04:01.373Z,25
2019-02-06T15:05:11.324Z,25
2019-02-06T15:06:21.466Z,25
2019-02-06T15:07:31.407Z,20
2019-02-06T15:08:41.338Z,20
2019-02-06T15:09:51.278Z,20
2019-02-06T15:11:01.218Z,15
2019-02-06T15:12:11.010Z,15
2019-02-06T15:13:22.002Z,15
2019-02-06T15:14:31.967Z,15
2019-02-06T15:15:41.944Z,10
2019-02-06T15:16:51.911Z,10
2019-02-06T15:18:01.992Z,10
2019-02-06T15:19:11.961Z,10
2019-02-06T15:20:21.914Z,10
2019-02-06T15:21:31.859Z,10
2019-02-06T15:22:41.804Z,10
2019-02-06T15:23:51.841Z,5
2019-02-06T15:25:01.781Z,5
2019-02-06T15:26:11.729Z,5
2019-02-06T15:27:22.105Z,5
2019-02-06T15:28:32.464Z,5
2019-02-06T15:29:43.561Z,5
2019-02-06T15:30:54.279Z,5
2019-02-06T15:32:04.943Z,5
2019-02-06T15:33:15.456Z,5
2019-02-06T15:34:25.954Z,5
2019-02-06T15:35:36.305Z,5
2019-02-06T15:36:46.242Z,0
2019-02-06T15:37:56.182Z,0
2019-02-06T15:39:06.238Z,0
2019-02-06T15:40:17.864Z,0
2019-02-06T15:41:37.787Z,0
2019-02-06T15:42:50.670Z,0
2019-02-06T15:44:00.615Z,0
2019-02-06T15:45:10.306Z,0
2019-02-06T15:46:20.354Z,0
2019-02-06T15:47:30.293Z,0
2019-02-06T15:48:40.234Z,0
2019-02-06T15:49:51.613Z,0
2019-02-06T15:51:06.105Z,0
2019-02-06T15:52:16.158Z,0
2019-02-06T15:53:26.146Z,0
2019-02-06T15:54:38.623Z,0
2019-02-06T15:55:48.887Z,0
2019-02-06T15:56:58.904Z,0
2019-02-06T15:58:11.346Z,0
2019-02-06T15:59:21.526Z,0
2019-02-06T16:00:31.465Z,0
2019-02-06T16:01:41.465Z,0
2019-02-06T16:02:51.393Z,0
2019-02-06T16:04:01.352Z,0
2019-02-06T16:05:11.830Z,0
2019-02-06T16:06:23.370Z,0
2019-02-06T16:07:34.327Z,0
2019-02-06T16:08:44.910Z,0
2019-02-06T16:09:55.677Z,0
2019-02-06T16:11:06.335Z,0
2019-02-06T16:12:31.238Z,0
2019-02-06T16:13:41.199Z,0
2019-02-06T16:14:51.241Z,0
2019-02-06T16:16:01.179Z,0
2019-02-06T16:17:11.123Z,0
2019-02-06T16:18:23.871Z,0
2019-02-06T16:19:33.819Z,0
2019-02-06T16:20:43.862Z,0
2019-02-06T16:22:02.659Z,0
2019-02-06T16:23:12.602Z,0
2019-02-06T16:24:22.591Z,0
2019-02-06T16:25:32.630Z,0
2019-02-06T16:26:42.692Z,0
2019-02-06T16:27:52.706Z,0
2019-02-06T16:29:02.649Z,0
2019-02-06T16:30:12.662Z,0
2019-02-06T16:31:22.618Z,0
2019-02-06T16:32:32.714Z,0
2019-02-06T16:33:42.679Z,0
2019-02-06T16:34:52.620Z,0
2019-02-06T16:36:02.549Z,0
2019-02-06T16:37:12.580Z,0
2019-02-06T16:38:22.671Z,0
2019-02-06T16:39:32.615Z,0
2019-02-06T16:40:42.547Z,0
2019-02-06T16:42:04.732Z,0
2019-02-06T16:43:15.287Z,0
2019-02-06T16:44:25.799Z,0
2019-02-06T16:45:35.908Z,0
2019-02-06T16:46:46.077Z,0
2019-02-06T16:47:56.029Z,0
2019-02-06T16:49:06.061Z,0
2019-02-06T16:50:16.006Z,0
2019-02-06T16:51:25.929Z,0
2019-02-06T16:52:35.872Z,0
2019-02-06T16:53:45.934Z,0
2019-02-06T16:54:55.973Z,0